Terminal Aerodrome Forecast
Issued by NWS

Home | Current Version | Previous Version | Text Only | Print | Product List | Glossary On
Versions: 1 2 3 4 5 6 7 8 9 10 11 12 13 14 15 16 17 18 19
478
FTUS44 KEPZ 301753 AAA
TAFDMN
TAF AMD
KDMN 301753Z 3018/3118 05011G18KT P6SM SCT050 BKN100
     FM302000 06011G17KT P6SM VCTS SCT040CB BKN100 BKN200
      TEMPO 3108/3112 4SM -RA BR SCT020 OVC030=

USA.gov is the U.S. government's official web portal to all federal, state and local government web resources and services.